Acampo, California
Current Conditions -  °F | °C
As of 8:55 AM on Sunday 23 Nov 2014 (Local Time) from KSCK Reporting Station
Clear Clear  
Wind Chill: 11°   Ceiling: Unl
Heat Index: 11°   Visibility: 10mi
Dew Point:   Wind: 7mph
Humidity: 80%   Direction: 300°WNW
Pressure: 30.3"   Gusts: NA
Location:  38.17°N, 121.28°W
Report Text: KSCK 231655Z 30006KT 10SM CLR 11/07 A3030 RMK AO2 SLP261 T01060072 $
Loading
Personal Weather Stations






























Interactive Weather Map New forecast layout! Learn more

10-Day Weather Forecast

Advertisements
Track Severe Weather on mobile